Sagittarian — WCY5210 — position and weather

sailwx.info

Track history (hours):
 
Tides and Currents Weather Stations Pressure Air Temp Water Temp Dewpoint Dewpoint Depression Visibility Wind Speed Wind Dir Waves Ship Positions

Sagittarian

Owner: TAURUS MARINE, SAN FRANCISCO, CA. More information available from US FCC via Universal Licensing System and Coast Guard Vessel Documentation Center.

Last reported at 2017-Sep-26 01:37 UTC. Time now 2017-Sep-26 07:33 UTC.
Position N 37°46' W 122°23'.

; draft 3 m.

Type: Towing. MMSI: 366969510.

Date/timePositionNaut miles runAvg speedWind from/ knotsBaromVisibWave heightAir tempDewpointWater temp
2017-Sep-26 01:37N 37°46' W 122°23'0 1.1
2017-Sep-26 01:30N 37°47' W 122°23'0 0.1
2017-Sep-26 01:00N 37°46' W 122°23'0 0.2
2017-Sep-26 00:30N 37°47' W 122°23'0 0.1
2017-Sep-26 00:00N 37°47' W 122°23'  
2017-Sep-21 18:44N 37°46' W 122°23'0 0.4
2017-Sep-21 18:30N 37°46' W 122°23'5 9.4
2017-Sep-21 18:00N 37°51' W 122°24'4 7.5
2017-Sep-21 17:30N 37°55' W 122°25'1 1.2
2017-Sep-21 17:00N 37°55' W 122°25'1 2.0
2017-Sep-21 16:30N 37°54' W 122°26'510.3
2017-Sep-21 16:00N 37°49' W 122°24'3 5.8
2017-Sep-21 15:30N 37°46' W 122°23'0 0.0
2017-Sep-20 15:59N 37°46' W 122°23'0 0.0
2017-Sep-20 15:30N 37°46' W 122°23'0 0.0
2017-Sep-20 15:00N 37°46' W 122°23'0 0.0
2017-Sep-20 14:00N 37°46' W 122°23'0 0.0
2017-Sep-20 13:30N 37°46' W 122°23'0 0.0
2017-Sep-20 13:00N 37°46' W 122°23'0 0.0
2017-Sep-20 12:31N 37°46' W 122°23'0 0.0
2017-Sep-20 12:00N 37°46' W 122°23'0 0.0
2017-Sep-20 11:30N 37°46' W 122°23'0 0.0
2017-Sep-20 11:01N 37°46' W 122°23'0 0.0
2017-Sep-20 10:31N 37°46' W 122°23'0 0.0
2017-Sep-20 10:01N 37°46' W 122°23'0 0.0
2017-Sep-20 09:30N 37°46' W 122°23'0 0.0
2017-Sep-20 09:00N 37°46' W 122°23'0 0.0
2017-Sep-20 08:30N 37°46' W 122°23'0 0.0
2017-Sep-20 08:00N 37°46' W 122°23'0 0.0
2017-Sep-20 07:30N 37°46' W 122°23'0 0.0
2017-Sep-20 07:00N 37°46' W 122°23'0 0.0
2017-Sep-20 06:30N 37°46' W 122°23'0 0.0
2017-Sep-20 06:00N 37°46' W 122°23'0 0.0
2017-Sep-20 05:30N 37°46' W 122°23'0 0.0
2017-Sep-20 05:00N 37°46' W 122°23'0 0.0
2017-Sep-20 04:30N 37°46' W 122°23'0 0.0
2017-Sep-20 04:00N 37°46' W 122°23'0 0.0
2017-Sep-20 03:30N 37°46' W 122°23'0 0.0
2017-Sep-20 03:00N 37°46' W 122°23'2 3.9
2017-Sep-20 02:31N 37°48' W 122°21'4 8.3
2017-Sep-20 02:00N 37°47' W 122°16'0 0.3
2017-Sep-20 01:31N 37°47' W 122°15'2 3.3
2017-Sep-20 01:00N 37°48' W 122°17'4 8.7
2017-Sep-20 00:30N 37°50' W 122°22'4 8.9
2017-Sep-20 00:00N 37°54' W 122°25'6 8.9
2017-Sep-19 23:18N 38°00' W 122°24'  
2017-Sep-17 19:05N 38°03' W 122°17'111.3
2017-Sep-17 19:00N 38°03' W 122°18'910.4
2017-Sep-17 18:10N 37°57' W 122°26'1 9.1
2017-Sep-17 18:00N 37°55' W 122°25'0 0.0
2017-Sep-17 17:30N 37°55' W 122°25'1 1.6
2017-Sep-17 17:00N 37°55' W 122°26'0 0.1
2017-Sep-17 16:30N 37°55' W 122°26'0 0.7
2017-Sep-17 16:00N 37°55' W 122°26'0 0.2
2017-Sep-17 15:29N 37°55' W 122°26'1 1.0
2017-Sep-17 14:59N 37°54' W 122°25'0 0.8
2017-Sep-17 14:30N 37°54' W 122°25'5 9.3
2017-Sep-17 14:00N 37°49' W 122°24'3 5.5
2017-Sep-17 13:30N 37°47' W 122°23'0 0.9
2017-Sep-17 13:00N 37°46' W 122°23'0 0.1
2017-Sep-17 12:30N 37°46' W 122°23'0 0.0
2017-Sep-17 12:00N 37°46' W 122°23'0 0.0
2017-Sep-17 11:30N 37°46' W 122°23'1 1.7
2017-Sep-17 11:00N 37°47' W 122°23'5 9.4
2017-Sep-17 10:30N 37°52' W 122°24'3 6.7
2017-Sep-17 10:00N 37°55' W 122°25'1 2.3
2017-Sep-17 09:29N 37°54' W 122°24'2 3.3
2017-Sep-17 09:00N 37°55' W 122°22'6 7.0
2017-Sep-17 08:06N 38°01' W 122°23'110.7
2017-Sep-17 08:00N 38°02' W 122°22'5 9.9
2017-Sep-17 07:30N 38°03' W 122°16'2 0.1
2017-Sep-16 13:57N 38°03' W 122°18'8 8.8
2017-Sep-16 12:59N 37°57' W 122°26'5 9.5
2017-Sep-16 12:30N 37°53' W 122°24'5 9.1
2017-Sep-16 12:00N 37°48' W 122°23'  
Track history (hours):
 
Tides and Currents Weather Stations Pressure Air Temp Water Temp Dewpoint Dewpoint Depression Visibility Wind Speed Wind Dir Waves Ship Positions

Sagittarian

Owner: TAURUS MARINE, SAN FRANCISCO, CA. More information available from US FCC via Universal Licensing System and Coast Guard Vessel Documentation Center.

Last reported at 2017-Sep-26 01:37 UTC. Time now 2017-Sep-26 07:33 UTC.
Position N 37°46' W 122°23'.

; draft 3 m.

Type: Towing. MMSI: 366969510.

Date/timePositionNaut miles runAvg speedWind from/ knotsBaromVisibWave heightAir tempDewpointWater temp
2017-Sep-26 01:37N 37°46' W 122°23'0 1.1
2017-Sep-26 01:30N 37°47' W 122°23'0 0.1
2017-Sep-26 01:00N 37°46' W 122°23'0 0.2
2017-Sep-26 00:30N 37°47' W 122°23'0 0.1
2017-Sep-26 00:00N 37°47' W 122°23'  
2017-Sep-21 18:44N 37°46' W 122°23'0 0.4
2017-Sep-21 18:30N 37°46' W 122°23'5 9.4
2017-Sep-21 18:00N 37°51' W 122°24'4 7.5
2017-Sep-21 17:30N 37°55' W 122°25'1 1.2
2017-Sep-21 17:00N 37°55' W 122°25'1 2.0
2017-Sep-21 16:30N 37°54' W 122°26'510.3
2017-Sep-21 16:00N 37°49' W 122°24'3 5.8
2017-Sep-21 15:30N 37°46' W 122°23'0 0.0
2017-Sep-20 15:59N 37°46' W 122°23'0 0.0
2017-Sep-20 15:30N 37°46' W 122°23'0 0.0
2017-Sep-20 15:00N 37°46' W 122°23'0 0.0
2017-Sep-20 14:00N 37°46' W 122°23'0 0.0
2017-Sep-20 13:30N 37°46' W 122°23'0 0.0
2017-Sep-20 13:00N 37°46' W 122°23'0 0.0
2017-Sep-20 12:31N 37°46' W 122°23'0 0.0
2017-Sep-20 12:00N 37°46' W 122°23'0 0.0
2017-Sep-20 11:30N 37°46' W 122°23'0 0.0
2017-Sep-20 11:01N 37°46' W 122°23'0 0.0
2017-Sep-20 10:31N 37°46' W 122°23'0 0.0
2017-Sep-20 10:01N 37°46' W 122°23'0 0.0
2017-Sep-20 09:30N 37°46' W 122°23'0 0.0
2017-Sep-20 09:00N 37°46' W 122°23'0 0.0
2017-Sep-20 08:30N 37°46' W 122°23'0 0.0
2017-Sep-20 08:00N 37°46' W 122°23'0 0.0
2017-Sep-20 07:30N 37°46' W 122°23'0 0.0
2017-Sep-20 07:00N 37°46' W 122°23'0 0.0
2017-Sep-20 06:30N 37°46' W 122°23'0 0.0
2017-Sep-20 06:00N 37°46' W 122°23'0 0.0
2017-Sep-20 05:30N 37°46' W 122°23'0 0.0
2017-Sep-20 05:00N 37°46' W 122°23'0 0.0
2017-Sep-20 04:30N 37°46' W 122°23'0 0.0
2017-Sep-20 04:00N 37°46' W 122°23'0 0.0
2017-Sep-20 03:30N 37°46' W 122°23'0 0.0
2017-Sep-20 03:00N 37°46' W 122°23'2 3.9
2017-Sep-20 02:31N 37°48' W 122°21'4 8.3
2017-Sep-20 02:00N 37°47' W 122°16'0 0.3
2017-Sep-20 01:31N 37°47' W 122°15'2 3.3
2017-Sep-20 01:00N 37°48' W 122°17'4 8.7
2017-Sep-20 00:30N 37°50' W 122°22'4 8.9
2017-Sep-20 00:00N 37°54' W 122°25'6 8.9
2017-Sep-19 23:18N 38°00' W 122°24'  
2017-Sep-17 19:05N 38°03' W 122°17'111.3
2017-Sep-17 19:00N 38°03' W 122°18'910.4
2017-Sep-17 18:10N 37°57' W 122°26'1 9.1
2017-Sep-17 18:00N 37°55' W 122°25'0 0.0
2017-Sep-17 17:30N 37°55' W 122°25'1 1.6
2017-Sep-17 17:00N 37°55' W 122°26'0 0.1
2017-Sep-17 16:30N 37°55' W 122°26'0 0.7
2017-Sep-17 16:00N 37°55' W 122°26'0 0.2
2017-Sep-17 15:29N 37°55' W 122°26'1 1.0
2017-Sep-17 14:59N 37°54' W 122°25'0 0.8
2017-Sep-17 14:30N 37°54' W 122°25'5 9.3
2017-Sep-17 14:00N 37°49' W 122°24'3 5.5
2017-Sep-17 13:30N 37°47' W 122°23'0 0.9
2017-Sep-17 13:00N 37°46' W 122°23'0 0.1
2017-Sep-17 12:30N 37°46' W 122°23'0 0.0
2017-Sep-17 12:00N 37°46' W 122°23'0 0.0
2017-Sep-17 11:30N 37°46' W 122°23'1 1.7
2017-Sep-17 11:00N 37°47' W 122°23'5 9.4
2017-Sep-17 10:30N 37°52' W 122°24'3 6.7
2017-Sep-17 10:00N 37°55' W 122°25'1 2.3
2017-Sep-17 09:29N 37°54' W 122°24'2 3.3
2017-Sep-17 09:00N 37°55' W 122°22'6 7.0
2017-Sep-17 08:06N 38°01' W 122°23'110.7
2017-Sep-17 08:00N 38°02' W 122°22'5 9.9
2017-Sep-17 07:30N 38°03' W 122°16'2 0.1
2017-Sep-16 13:57N 38°03' W 122°18'8 8.8
2017-Sep-16 12:59N 37°57' W 122°26'5 9.5
2017-Sep-16 12:30N 37°53' W 122°24'5 9.1
2017-Sep-16 12:00N 37°48' W 122°23'  

Dump ship's entire track history